sensor_id;sensor_type;location;lat;lon;timestamp;P1;durP1;ratioP1;P2;durP2;ratioP2
49153;SDS011;49455;52.252;9.124;2022-11-20T08:44:40;22.48;;;12.38;;
49153;SDS011;49455;52.252;9.124;2022-11-20T08:49:40;22.77;;;12.97;;
49153;SDS011;49455;52.252;9.124;2022-11-20T08:54:41;24.60;;;13.57;;
49153;SDS011;49455;52.252;9.124;2022-11-20T08:59:41;25.27;;;13.70;;
49153;SDS011;49455;52.252;9.124;2022-11-20T09:04:41;24.00;;;13.83;;
49153;SDS011;49455;52.252;9.124;2022-11-20T09:09:42;25.43;;;13.77;;
49153;SDS011;49455;52.252;9.124;2022-11-20T09:14:42;23.07;;;13.43;;
49153;SDS011;49455;52.252;9.124;2022-11-20T09:19:42;24.40;;;12.97;;
49153;SDS011;49455;52.252;9.124;2022-11-20T09:24:43;25.90;;;14.83;;
49153;SDS011;49455;52.252;9.124;2022-11-20T09:29:43;27.43;;;15.00;;
49153;SDS011;49455;52.252;9.124;2022-11-20T09:34:44;25.80;;;13.47;;
49153;SDS011;49455;52.252;9.124;2022-11-20T09:39:44;26.33;;;14.67;;
49153;SDS011;49455;52.252;9.124;2022-11-20T09:50:56;27.75;;;15.88;;
49153;SDS011;49455;52.252;9.124;2022-11-20T09:56:03;27.30;;;15.10;;
49153;SDS011;49455;52.252;9.124;2022-11-20T10:01:37;26.10;;;15.55;;
49153;SDS011;49455;52.252;9.124;2022-11-20T10:06:33;28.80;;;15.15;;
49153;SDS011;49455;52.252;9.124;2022-11-20T10:17:13;30.02;;;16.48;;
49153;SDS011;49455;52.252;9.124;2022-11-20T10:38:22;30.35;;;16.02;;
49153;SDS011;49455;52.252;9.124;2022-11-20T10:43:32;29.20;;;16.67;;
49153;SDS011;49455;52.252;9.124;2022-11-20T10:48:33;30.48;;;17.52;;
49153;SDS011;49455;52.252;9.124;2022-11-20T10:59:04;33.17;;;17.40;;
49153;SDS011;49455;52.252;9.124;2022-11-20T11:04:15;30.35;;;17.00;;
49153;SDS011;49455;52.252;9.124;2022-11-20T11:09:37;32.35;;;17.02;;
49153;SDS011;49455;52.252;9.124;2022-11-20T11:14:51;26.60;;;15.68;;
49153;SDS011;49455;52.252;9.124;2022-11-20T11:20:03;28.40;;;16.38;;
49153;SDS011;49455;52.252;9.124;2022-11-20T11:25:18;28.38;;;16.52;;
49153;SDS011;49455;52.252;9.124;2022-11-20T11:30:21;29.55;;;16.65;;
49153;SDS011;49455;52.252;9.124;2022-11-20T11:35:24;29.38;;;16.70;;
49153;SDS011;49455;52.252;9.124;2022-11-20T11:40:26;28.88;;;16.13;;
49153;SDS011;49455;52.252;9.124;2022-11-20T11:45:28;27.52;;;17.17;;
49153;SDS011;49455;52.252;9.124;2022-11-20T11:50:29;24.90;;;15.73;;
49153;SDS011;49455;52.252;9.124;2022-11-20T11:55:31;27.47;;;15.87;;
49153;SDS011;49455;52.252;9.124;2022-11-20T12:01:16;31.37;;;17.57;;
49153;SDS011;49455;52.252;9.124;2022-11-20T12:06:33;27.67;;;14.95;;
49153;SDS011;49455;52.252;9.124;2022-11-20T12:16:45;24.08;;;14.60;;
49153;SDS011;49455;52.252;9.124;2022-11-20T12:42:43;27.20;;;15.82;;
49153;SDS011;49455;52.252;9.124;2022-11-20T13:04:00;33.13;;;17.88;;
49153;SDS011;49455;52.252;9.124;2022-11-20T13:09:16;25.67;;;15.38;;
49153;SDS011;49455;52.252;9.124;2022-11-20T13:14:24;41.67;;;19.42;;
49153;SDS011;49455;52.252;9.124;2022-11-20T13:19:26;31.83;;;17.00;;
49153;SDS011;49455;52.252;9.124;2022-11-20T13:24:28;25.53;;;15.07;;
49153;SDS011;49455;52.252;9.124;2022-11-20T13:29:31;20.83;;;13.73;;
49153;SDS011;49455;52.252;9.124;2022-11-20T13:34:32;21.27;;;13.63;;
49153;SDS011;49455;52.252;9.124;2022-11-20T13:39:34;21.05;;;13.27;;
49153;SDS011;49455;52.252;9.124;2022-11-20T13:44:42;21.50;;;13.65;;
49153;SDS011;49455;52.252;9.124;2022-11-20T13:49:47;19.83;;;12.70;;
49153;SDS011;49455;52.252;9.124;2022-11-20T14:05:23;20.73;;;12.65;;
49153;SDS011;49455;52.252;9.124;2022-11-20T14:10:27;19.87;;;12.40;;
49153;SDS011;49455;52.252;9.124;2022-11-20T14:15:32;23.45;;;13.65;;
49153;SDS011;49455;52.252;9.124;2022-11-20T14:20:34;21.33;;;14.02;;
49153;SDS011;49455;52.252;9.124;2022-11-20T14:30:46;21.33;;;13.07;;
49153;SDS011;49455;52.252;9.124;2022-11-20T14:41:51;23.67;;;13.07;;
49153;SDS011;49455;52.252;9.124;2022-11-20T14:46:53;18.27;;;11.73;;
49153;SDS011;49455;52.252;9.124;2022-11-20T14:52:19;19.88;;;12.02;;
49153;SDS011;49455;52.252;9.124;2022-11-20T15:02:50;28.13;;;15.35;;
49153;SDS011;49455;52.252;9.124;2022-11-20T15:08:03;24.45;;;15.02;;
49153;SDS011;49455;52.252;9.124;2022-11-20T15:13:14;25.42;;;14.75;;
49153;SDS011;49455;52.252;9.124;2022-11-20T15:18:19;24.85;;;14.93;;
49153;SDS011;49455;52.252;9.124;2022-11-20T15:23:23;21.27;;;13.50;;
49153;SDS011;49455;52.252;9.124;2022-11-20T15:28:42;23.03;;;14.43;;
49153;SDS011;49455;52.252;9.124;2022-11-20T15:33:44;23.65;;;14.10;;
49153;SDS011;49455;52.252;9.124;2022-11-20T15:38:45;27.03;;;15.43;;
49153;SDS011;49455;52.252;9.124;2022-11-20T15:43:45;26.70;;;16.30;;
49153;SDS011;49455;52.252;9.124;2022-11-20T15:48:47;27.40;;;16.23;;
49153;SDS011;49455;52.252;9.124;2022-11-20T15:53:57;26.60;;;15.60;;
49153;SDS011;49455;52.252;9.124;2022-11-20T15:58:58;28.13;;;16.90;;
49153;SDS011;49455;52.252;9.124;2022-11-20T16:03:59;30.57;;;16.97;;
49153;SDS011;49455;52.252;9.124;2022-11-20T16:09:00;26.20;;;14.73;;
49153;SDS011;49455;52.252;9.124;2022-11-20T16:14:00;27.93;;;15.30;;
49153;SDS011;49455;52.252;9.124;2022-11-20T16:19:01;23.17;;;14.50;;
49153;SDS011;49455;52.252;9.124;2022-11-20T16:24:05;24.42;;;14.88;;
49153;SDS011;49455;52.252;9.124;2022-11-20T16:29:09;26.55;;;15.50;;
49153;SDS011;49455;52.252;9.124;2022-11-20T16:34:10;27.63;;;16.37;;
49153;SDS011;49455;52.252;9.124;2022-11-20T16:39:12;26.57;;;15.43;;
49153;SDS011;49455;52.252;9.124;2022-11-20T16:44:14;26.75;;;16.02;;
49153;SDS011;49455;52.252;9.124;2022-11-20T16:49:14;30.13;;;16.27;;
49153;SDS011;49455;52.252;9.124;2022-11-20T16:54:15;25.77;;;16.00;;
49153;SDS011;49455;52.252;9.124;2022-11-20T16:59:15;29.30;;;17.20;;
49153;SDS011;49455;52.252;9.124;2022-11-20T17:04:16;28.77;;;15.43;;
49153;SDS011;49455;52.252;9.124;2022-11-20T17:09:20;28.83;;;16.27;;
49153;SDS011;49455;52.252;9.124;2022-11-20T17:14:48;32.60;;;15.98;;
49153;SDS011;49455;52.252;9.124;2022-11-20T17:19:49;30.87;;;15.80;;
49153;SDS011;49455;52.252;9.124;2022-11-20T17:24:49;25.13;;;14.50;;
49153;SDS011;49455;52.252;9.124;2022-11-20T17:29:53;29.35;;;15.45;;
49153;SDS011;49455;52.252;9.124;2022-11-20T17:35:17;24.52;;;14.38;;
49153;SDS011;49455;52.252;9.124;2022-11-20T17:40:23;26.50;;;14.52;;
49153;SDS011;49455;52.252;9.124;2022-11-20T17:45:24;26.97;;;14.90;;
49153;SDS011;49455;52.252;9.124;2022-11-20T17:50:24;27.67;;;16.30;;
49153;SDS011;49455;52.252;9.124;2022-11-20T17:55:24;26.60;;;14.93;;
49153;SDS011;49455;52.252;9.124;2022-11-20T18:00:25;27.17;;;15.13;;
49153;SDS011;49455;52.252;9.124;2022-11-20T18:05:25;26.57;;;14.50;;
49153;SDS011;49455;52.252;9.124;2022-11-20T18:10:29;23.53;;;13.73;;
49153;SDS011;49455;52.252;9.124;2022-11-20T18:15:33;27.35;;;14.65;;
49153;SDS011;49455;52.252;9.124;2022-11-20T18:20:36;24.23;;;14.67;;
49153;SDS011;49455;52.252;9.124;2022-11-20T18:25:37;26.67;;;13.77;;
49153;SDS011;49455;52.252;9.124;2022-11-20T18:30:37;25.03;;;14.23;;
49153;SDS011;49455;52.252;9.124;2022-11-20T18:35:40;22.15;;;13.15;;
49153;SDS011;49455;52.252;9.124;2022-11-20T18:40:40;22.83;;;12.87;;
49153;SDS011;49455;52.252;9.124;2022-11-20T18:45:41;25.13;;;13.60;;
49153;SDS011;49455;52.252;9.124;2022-11-20T18:50:41;22.73;;;13.20;;
49153;SDS011;49455;52.252;9.124;2022-11-20T18:55:48;20.63;;;11.93;;
49153;SDS011;49455;52.252;9.124;2022-11-20T19:00:48;22.27;;;13.17;;
49153;SDS011;49455;52.252;9.124;2022-11-20T19:05:49;23.10;;;13.33;;
